sensor_id;sensor_type;location;lat;lon;timestamp;pressure;altitude;pressure_sealevel;temperature;humidity
7824;BME280;3957;48.61947800;9.05303100;2024-02-23T00:01:00;94123.66;;;3.10;100.00
7824;BME280;3957;48.61947800;9.05303100;2024-02-23T00:02:02;94130.78;;;3.10;100.00
7824;BME280;3957;48.61947800;9.05303100;2024-02-23T00:03:04;94124.69;;;3.09;100.00
7824;BME280;3957;48.61947800;9.05303100;2024-02-23T00:04:06;94134.44;;;3.09;100.00
7824;BME280;3957;48.61947800;9.05303100;2024-02-23T00:05:09;94134.66;;;3.07;100.00
7824;BME280;3957;48.61947800;9.05303100;2024-02-23T00:06:11;94143.38;;;3.08;100.00
7824;BME280;3957;48.61947800;9.05303100;2024-02-23T00:07:13;94137.31;;;3.07;100.00
7824;BME280;3957;48.61947800;9.05303100;2024-02-23T00:08:15;94137.09;;;3.02;100.00
7824;BME280;3957;48.61947800;9.05303100;2024-02-23T00:09:16;94129.97;;;3.02;100.00
7824;BME280;3957;48.61947800;9.05303100;2024-02-23T00:10:18;94140.75;;;3.08;100.00
7824;BME280;3957;48.61947800;9.05303100;2024-02-23T00:11:20;94138.94;;;3.08;100.00
7824;BME280;3957;48.61947800;9.05303100;2024-02-23T00:12:22;94136.69;;;3.05;100.00
7824;BME280;3957;48.61947800;9.05303100;2024-02-23T00:13:24;94139.72;;;3.09;100.00
7824;BME280;3957;48.61947800;9.05303100;2024-02-23T00:14:25;94142.16;;;3.10;100.00
7824;BME280;3957;48.61947800;9.05303100;2024-02-23T00:15:27;94152.53;;;3.05;100.00
7824;BME280;3957;48.61947800;9.05303100;2024-02-23T00:16:28;94153.38;;;3.05;100.00
7824;BME280;3957;48.61947800;9.05303100;2024-02-23T00:17:30;94154.78;;;3.08;100.00
7824;BME280;3957;48.61947800;9.05303100;2024-02-23T00:18:32;94154.78;;;3.08;100.00
7824;BME280;3957;48.61947800;9.05303100;2024-02-23T00:19:33;94158.03;;;2.97;100.00
7824;BME280;3957;48.61947800;9.05303100;2024-02-23T00:20:35;94159.66;;;2.98;100.00
7824;BME280;3957;48.61947800;9.05303100;2024-02-23T00:21:38;94161.69;;;3.09;100.00
7824;BME280;3957;48.61947800;9.05303100;2024-02-23T00:22:43;94158.81;;;3.11;100.00
7824;BME280;3957;48.61947800;9.05303100;2024-02-23T00:23:45;94164.94;;;3.11;100.00
7824;BME280;3957;48.61947800;9.05303100;2024-02-23T00:24:46;94173.88;;;3.10;100.00
7824;BME280;3957;48.61947800;9.05303100;2024-02-23T00:25:48;94171.84;;;3.12;100.00
7824;BME280;3957;48.61947800;9.05303100;2024-02-23T00:26:49;94183.03;;;3.14;100.00
7824;BME280;3957;48.61947800;9.05303100;2024-02-23T00:27:52;94182.00;;;3.15;100.00
7824;BME280;3957;48.61947800;9.05303100;2024-02-23T00:28:54;94176.09;;;3.13;100.00
7824;BME280;3957;48.61947800;9.05303100;2024-02-23T00:29:56;94189.31;;;3.13;100.00
7824;BME280;3957;48.61947800;9.05303100;2024-02-23T00:30:57;94187.50;;;3.14;100.00
7824;BME280;3957;48.61947800;9.05303100;2024-02-23T00:31:59;94189.09;;;3.15;100.00
7824;BME280;3957;48.61947800;9.05303100;2024-02-23T00:33:00;94186.28;;;3.16;100.00
7824;BME280;3957;48.61947800;9.05303100;2024-02-23T00:34:02;94193.59;;;3.14;100.00
7824;BME280;3957;48.61947800;9.05303100;2024-02-23T00:35:04;94198.47;;;3.17;100.00
7824;BME280;3957;48.61947800;9.05303100;2024-02-23T00:36:06;94191.16;;;3.19;100.00
7824;BME280;3957;48.61947800;9.05303100;2024-02-23T00:37:07;94181.81;;;3.17;100.00
7824;BME280;3957;48.61947800;9.05303100;2024-02-23T00:38:09;94188.50;;;3.19;100.00
7824;BME280;3957;48.61947800;9.05303100;2024-02-23T00:39:10;94195.44;;;3.14;100.00
7824;BME280;3957;48.61947800;9.05303100;2024-02-23T00:40:12;94195.44;;;3.14;100.00
7824;BME280;3957;48.61947800;9.05303100;2024-02-23T00:41:14;94191.16;;;3.13;100.00
7824;BME280;3957;48.61947800;9.05303100;2024-02-23T00:42:16;94193.59;;;3.14;100.00
7824;BME280;3957;48.61947800;9.05303100;2024-02-23T00:43:19;94190.75;;;3.16;100.00
7824;BME280;3957;48.61947800;9.05303100;2024-02-23T00:44:20;94184.44;;;3.17;100.00
7824;BME280;3957;48.61947800;9.05303100;2024-02-23T00:45:22;94186.66;;;3.13;100.00
7824;BME280;3957;48.61947800;9.05303100;2024-02-23T00:46:23;94179.97;;;3.17;100.00
7824;BME280;3957;48.61947800;9.05303100;2024-02-23T00:47:26;94175.50;;;3.11;100.00
7824;BME280;3957;48.61947800;9.05303100;2024-02-23T00:48:28;94173.88;;;3.10;100.00
7824;BME280;3957;48.61947800;9.05303100;2024-02-23T00:49:30;94176.09;;;3.13;100.00
7824;BME280;3957;48.61947800;9.05303100;2024-02-23T00:50:32;94186.47;;;3.15;100.00
7824;BME280;3957;48.61947800;9.05303100;2024-02-23T00:51:33;94183.84;;;3.08;100.00
7824;BME280;3957;48.61947800;9.05303100;2024-02-23T00:52:35;94187.72;;;3.05;100.00
7824;BME280;3957;48.61947800;9.05303100;2024-02-23T00:53:36;94183.44;;;3.11;100.00
7824;BME280;3957;48.61947800;9.05303100;2024-02-23T00:54:38;94193.38;;;3.09;100.00
7824;BME280;3957;48.61947800;9.05303100;2024-02-23T00:55:39;94200.31;;;3.03;100.00
7824;BME280;3957;48.61947800;9.05303100;2024-02-23T00:56:41;94195.22;;;3.09;100.00
7824;BME280;3957;48.61947800;9.05303100;2024-02-23T00:57:52;94205.78;;;3.09;100.00
7824;BME280;3957;48.61947800;9.05303100;2024-02-23T00:58:53;94204.16;;;3.08;100.00
7824;BME280;3957;48.61947800;9.05303100;2024-02-23T00:59:58;94207.81;;;3.13;100.00
7824;BME280;3957;48.61947800;9.05303100;2024-02-23T01:01:00;94198.88;;;3.14;100.00
7824;BME280;3957;48.61947800;9.05303100;2024-02-23T01:02:01;94199.88;;;3.06;100.00
7824;BME280;3957;48.61947800;9.05303100;2024-02-23T01:03:03;94197.06;;;3.08;100.00
7824;BME280;3957;48.61947800;9.05303100;2024-02-23T01:04:05;94197.44;;;3.12;100.00
7824;BME280;3957;48.61947800;9.05303100;2024-02-23T01:05:06;94196.66;;;3.04;100.00
7824;BME280;3957;48.61947800;9.05303100;2024-02-23T01:06:11;94199.88;;;3.06;100.00
7824;BME280;3957;48.61947800;9.05303100;2024-02-23T01:07:12;94212.91;;;3.01;100.00
7824;BME280;3957;48.61947800;9.05303100;2024-02-23T01:08:14;94212.50;;;3.04;100.00
7824;BME280;3957;48.61947800;9.05303100;2024-02-23T01:09:16;94199.72;;;3.01;100.00
7824;BME280;3957;48.61947800;9.05303100;2024-02-23T01:10:21;94213.72;;;3.02;100.00
7824;BME280;3957;48.61947800;9.05303100;2024-02-23T01:11:23;94203.56;;;3.05;100.00
7824;BME280;3957;48.61947800;9.05303100;2024-02-23T01:12:25;94201.72;;;2.99;100.00
7824;BME280;3957;48.61947800;9.05303100;2024-02-23T01:13:26;94203.97;;;2.96;100.00
7824;BME280;3957;48.61947800;9.05303100;2024-02-23T01:14:28;94187.13;;;2.90;100.00
7824;BME280;3957;48.61947800;9.05303100;2024-02-23T01:15:29;94188.50;;;2.99;100.00
7824;BME280;3957;48.61947800;9.05303100;2024-02-23T01:16:31;94188.94;;;2.96;100.00
7824;BME280;3957;48.61947800;9.05303100;2024-02-23T01:17:33;94182.22;;;2.94;100.00
7824;BME280;3957;48.61947800;9.05303100;2024-02-23T01:18:35;94190.75;;;2.89;100.00
7824;BME280;3957;48.61947800;9.05303100;2024-02-23T01:19:37;94201.34;;;2.96;100.00
7824;BME280;3957;48.61947800;9.05303100;2024-02-23T01:20:39;94202.13;;;2.96;100.00
7824;BME280;3957;48.61947800;9.05303100;2024-02-23T01:21:40;94198.69;;;2.96;100.00
7824;BME280;3957;48.61947800;9.05303100;2024-02-23T01:22:42;94195.63;;;2.92;100.00
7824;BME280;3957;48.61947800;9.05303100;2024-02-23T01:23:44;94207.22;;;2.91;100.00
7824;BME280;3957;48.61947800;9.05303100;2024-02-23T01:24:45;94208.84;;;2.85;100.00
7824;BME280;3957;48.61947800;9.05303100;2024-02-23T01:25:47;94215.53;;;2.81;100.00
7824;BME280;3957;48.61947800;9.05303100;2024-02-23T01:26:49;94218.59;;;2.78;100.00
7824;BME280;3957;48.61947800;9.05303100;2024-02-23T01:27:51;94216.34;;;2.75;100.00
7824;BME280;3957;48.61947800;9.05303100;2024-02-23T01:28:52;94211.44;;;2.72;100.00
7824;BME280;3957;48.61947800;9.05303100;2024-02-23T01:29:54;94204.56;;;2.78;100.00
7824;BME280;3957;48.61947800;9.05303100;2024-02-23T01:30:56;94202.72;;;2.71;100.00
7824;BME280;3957;48.61947800;9.05303100;2024-02-23T01:31:57;94203.34;;;2.80;100.00
7824;BME280;3957;48.61947800;9.05303100;2024-02-23T01:32:59;94203.34;;;2.74;100.00
7824;BME280;3957;48.61947800;9.05303100;2024-02-23T01:34:02;94202.94;;;2.70;100.00
7824;BME280;3957;48.61947800;9.05303100;2024-02-23T01:35:07;94203.34;;;2.74;100.00
7824;BME280;3957;48.61947800;9.05303100;2024-02-23T01:36:09;94199.47;;;2.63;100.00
7824;BME280;3957;48.61947800;9.05303100;2024-02-23T01:37:11;94203.94;;;2.62;100.00
7824;BME280;3957;48.61947800;9.05303100;2024-02-23T01:38:12;94211.47;;;2.59;100.00
7824;BME280;3957;48.61947800;9.05303100;2024-02-23T01:39:20;94214.28;;;2.57;100.00
7824;BME280;3957;48.61947800;9.05303100;2024-02-23T01:40:21;94214.50;;;2.62;100.00
7824;BME280;3957;48.61947800;9.05303100;2024-02-23T01:41:23;94209.41;;;2.61;100.00
7824;BME280;3957;48.61947800;9.05303100;2024-02-23T01:42:25;94207.78;;;2.66;100.00
7824;BME280;3957;48.61947800;9.05303100;2024-02-23T01:43:27;94204.75;;;2.63;100.00
7824;BME280;3957;48.61947800;9.05303100;2024-02-23T01:44:28;94209.44;;;2.67;100.00
7824;BME280;3957;48.61947800;9.05303100;2024-02-23T01:45:30;94218.16;;;2.75;100.00
7824;BME280;3957;48.61947800;9.05303100;2024-02-23T01:46:32;94211.06;;;2.68;100.00
7824;BME280;3957;48.61947800;9.05303100;2024-02-23T01:47:34;94212.06;;;2.61;100.00
7824;BME280;3957;48.61947800;9.05303100;2024-02-23T01:48:35;94210.81;;;2.57;100.00
7824;BME280;3957;48.61947800;9.05303100;2024-02-23T01:49:38;94210.00;;;2.49;100.00
7824;BME280;3957;48.61947800;9.05303100;2024-02-23T01:50:40;94220.56;;;2.49;100.00
7824;BME280;3957;48.61947800;9.05303100;2024-02-23T01:51:41;94211.41;;;2.45;100.00
7824;BME280;3957;48.61947800;9.05303100;2024-02-23T01:52:43;94205.94;;;2.47;100.00
7824;BME280;3957;48.61947800;9.05303100;2024-02-23T01:53:45;94214.06;;;2.45;100.00
7824;BME280;3957;48.61947800;9.05303100;2024-02-23T01:54:46;94216.28;;;2.48;100.00
7824;BME280;3957;48.61947800;9.05303100;2024-02-23T01:55:48;94213.44;;;2.50;100.00
7824;BME280;3957;48.61947800;9.05303100;2024-02-23T01:56:50;94214.06;;;2.45;100.00
7824;BME280;3957;48.61947800;9.05303100;2024-02-23T01:57:53;94209.38;;;2.41;100.00
7824;BME280;3957;48.61947800;9.05303100;2024-02-23T01:58:55;94221.97;;;2.38;100.00
7824;BME280;3957;48.61947800;9.05303100;2024-02-23T01:59:57;94213.63;;;2.42;100.00
7824;BME280;3957;48.61947800;9.05303100;2024-02-23T02:01:02;94209.19;;;2.42;100.00
7824;BME280;3957;48.61947800;9.05303100;2024-02-23T02:02:04;94216.44;;;2.33;100.00
7824;BME280;3957;48.61947800;9.05303100;2024-02-23T02:03:05;94218.91;;;2.35;100.00
7824;BME280;3957;48.61947800;9.05303100;2024-02-23T02:04:13;94222.78;;;2.39;100.00
7824;BME280;3957;48.61947800;9.05303100;2024-02-23T02:05:14;94219.28;;;2.32;100.00
7824;BME280;3957;48.61947800;9.05303100;2024-02-23T02:06:16;94216.47;;;2.40;100.00
7824;BME280;3957;48.61947800;9.05303100;2024-02-23T02:07:18;94218.53;;;2.45;100.00
7824;BME280;3957;48.61947800;9.05303100;2024-02-23T02:08:21;94222.97;;;2.44;100.00
7824;BME280;3957;48.61947800;9.05303100;2024-02-23T02:09:23;94223.19;;;2.43;100.00
7824;BME280;3957;48.61947800;9.05303100;2024-02-23T02:10:25;94227.06;;;2.47;100.00
7824;BME280;3957;48.61947800;9.05303100;2024-02-23T02:11:28;94229.69;;;2.47;100.00
7824;BME280;3957;48.61947800;9.05303100;2024-02-23T02:12:30;94222.59;;;2.47;100.00
7824;BME280;3957;48.61947800;9.05303100;2024-02-23T02:13:31;94230.91;;;2.44;100.00
7824;BME280;3957;48.61947800;9.05303100;2024-02-23T02:14:33;94223.59;;;2.40;100.00
7824;BME280;3957;48.61947800;9.05303100;2024-02-23T02:15:35;94229.06;;;2.38;100.00
7824;BME280;3957;48.61947800;9.05303100;2024-02-23T02:16:36;94236.16;;;2.37;100.00
7824;BME280;3957;48.61947800;9.05303100;2024-02-23T02:17:38;94226.22;;;2.33;100.00
7824;BME280;3957;48.61947800;9.05303100;2024-02-23T02:18:40;94238.81;;;2.37;100.00
7824;BME280;3957;48.61947800;9.05303100;2024-02-23T02:19:46;94238.63;;;2.39;100.00
7824;BME280;3957;48.61947800;9.05303100;2024-02-23T02:20:55;94236.16;;;2.37;100.00
7824;BME280;3957;48.61947800;9.05303100;2024-02-23T02:21:58;94233.53;;;2.44;100.00
7824;BME280;3957;48.61947800;9.05303100;2024-02-23T02:22:59;94239.25;;;2.48;100.00
7824;BME280;3957;48.61947800;9.05303100;2024-02-23T02:24:01;94232.97;;;2.49;100.00
7824;BME280;3957;48.61947800;9.05303100;2024-02-23T02:25:02;94233.16;;;2.47;100.00
7824;BME280;3957;48.61947800;9.05303100;2024-02-23T02:26:04;94249.38;;;2.44;100.00
7824;BME280;3957;48.61947800;9.05303100;2024-02-23T02:27:06;94241.09;;;2.47;100.00
7824;BME280;3957;48.61947800;9.05303100;2024-02-23T02:28:08;94233.16;;;2.41;100.00
7824;BME280;3957;48.61947800;9.05303100;2024-02-23T02:29:09;94230.31;;;2.42;100.00
7824;BME280;3957;48.61947800;9.05303100;2024-02-23T02:30:12;94232.97;;;2.49;100.00
7824;BME280;3957;48.61947800;9.05303100;2024-02-23T02:31:14;94236.41;;;2.49;100.00
7824;BME280;3957;48.61947800;9.05303100;2024-02-23T02:32:15;94236.19;;;2.51;100.00
7824;BME280;3957;48.61947800;9.05303100;2024-02-23T02:33:17;94229.50;;;2.48;100.00
7824;BME280;3957;48.61947800;9.05303100;2024-02-23T02:34:19;94230.69;;;2.46;100.00
7824;BME280;3957;48.61947800;9.05303100;2024-02-23T02:35:20;94231.31;;;2.48;100.00
7824;BME280;3957;48.61947800;9.05303100;2024-02-23T02:36:22;94236.00;;;2.52;100.00
7824;BME280;3957;48.61947800;9.05303100;2024-02-23T02:37:24;94223.19;;;2.43;100.00
7824;BME280;3957;48.61947800;9.05303100;2024-02-23T02:38:25;94225.41;;;2.46;100.00
7824;BME280;3957;48.61947800;9.05303100;2024-02-23T02:39:27;94229.09;;;2.45;100.00
7824;BME280;3957;48.61947800;9.05303100;2024-02-23T02:40:29;94208.97;;;2.44;100.00
7824;BME280;3957;48.61947800;9.05303100;2024-02-23T02:41:32;94227.25;;;2.45;100.00
7824;BME280;3957;48.61947800;9.05303100;2024-02-23T02:42:33;94226.25;;;2.46;100.00
7824;BME280;3957;48.61947800;9.05303100;2024-02-23T02:43:35;94230.53;;;2.47;100.00
7824;BME280;3957;48.61947800;9.05303100;2024-02-23T02:44:37;94225.44;;;2.52;100.00
7824;BME280;3957;48.61947800;9.05303100;2024-02-23T02:45:39;94222.19;;;2.50;100.00
7824;BME280;3957;48.61947800;9.05303100;2024-02-23T02:46:41;94222.00;;;2.52;100.00
7824;BME280;3957;48.61947800;9.05303100;2024-02-23T02:47:42;94223.63;;;2.46;100.00
7824;BME280;3957;48.61947800;9.05303100;2024-02-23T02:48:44;94221.38;;;2.50;100.00
7824;BME280;3957;48.61947800;9.05303100;2024-02-23T02:49:46;94228.47;;;2.49;100.00
7824;BME280;3957;48.61947800;9.05303100;2024-02-23T02:50:47;94229.50;;;2.48;100.00
7824;BME280;3957;48.61947800;9.05303100;2024-02-23T02:51:52;94227.03;;;2.40;100.00
7824;BME280;3957;48.61947800;9.05303100;2024-02-23T02:52:53;94226.84;;;2.42;100.00
7824;BME280;3957;48.61947800;9.05303100;2024-02-23T02:53:55;94228.25;;;2.44;100.00
7824;BME280;3957;48.61947800;9.05303100;2024-02-23T02:54:57;94228.91;;;2.46;100.00
7824;BME280;3957;48.61947800;9.05303100;2024-02-23T02:55:59;94228.72;;;2.54;100.00
7824;BME280;3957;48.61947800;9.05303100;2024-02-23T02:57:01;94228.69;;;2.48;100.00
7824;BME280;3957;48.61947800;9.05303100;2024-02-23T02:58:02;94223.41;;;2.48;100.00
7824;BME280;3957;48.61947800;9.05303100;2024-02-23T02:59:04;94224.22;;;2.48;100.00
7824;BME280;3957;48.61947800;9.05303100;2024-02-23T03:00:09;94225.66;;;2.51;100.00
7824;BME280;3957;48.61947800;9.05303100;2024-02-23T03:01:11;94229.50;;;2.48;100.00
7824;BME280;3957;48.61947800;9.05303100;2024-02-23T03:02:13;94225.03;;;2.49;100.00
7824;BME280;3957;48.61947800;9.05303100;2024-02-23T03:03:15;94215.28;;;2.49;100.00
7824;BME280;3957;48.61947800;9.05303100;2024-02-23T03:04:16;94203.06;;;2.42;100.00
7824;BME280;3957;48.61947800;9.05303100;2024-02-23T03:05:18;94204.91;;;2.41;100.00
7824;BME280;3957;48.61947800;9.05303100;2024-02-23T03:06:20;94213.63;;;2.42;100.00
7824;BME280;3957;48.61947800;9.05303100;2024-02-23T03:07:21;94216.28;;;2.42;100.00
7824;BME280;3957;48.61947800;9.05303100;2024-02-23T03:08:23;94222.19;;;2.50;100.00
7824;BME280;3957;48.61947800;9.05303100;2024-02-23T03:09:24;94219.13;;;2.40;100.00
7824;BME280;3957;48.61947800;9.05303100;2024-02-23T03:10:26;94221.94;;;2.32;100.00
7824;BME280;3957;48.61947800;9.05303100;2024-02-23T03:11:27;94223.16;;;2.36;100.00
7824;BME280;3957;48.61947800;9.05303100;2024-02-23T03:12:29;94213.03;;;2.40;100.00
7824;BME280;3957;48.61947800;9.05303100;2024-02-23T03:13:31;94212.22;;;2.39;100.00
7824;BME280;3957;48.61947800;9.05303100;2024-02-23T03:14:33;94206.75;;;2.41;100.00
7824;BME280;3957;48.61947800;9.05303100;2024-02-23T03:15:38;94204.31;;;2.39;100.00
7824;BME280;3957;48.61947800;9.05303100;2024-02-23T03:16:40;94212.22;;;2.39;100.00
7824;BME280;3957;48.61947800;9.05303100;2024-02-23T03:17:41;94204.47;;;2.37;100.00
7824;BME280;3957;48.61947800;9.05303100;2024-02-23T03:18:44;94216.28;;;2.35;100.00
7824;BME280;3957;48.61947800;9.05303100;2024-02-23T03:19:45;94218.50;;;2.31;100.00
7824;BME280;3957;48.61947800;9.05303100;2024-02-23T03:20:47;94228.03;;;2.32;100.00
7824;BME280;3957;48.61947800;9.05303100;2024-02-23T03:21:49;94218.09;;;2.41;100.00
7824;BME280;3957;48.61947800;9.05303100;2024-02-23T03:22:51;94219.75;;;2.42;100.00
7824;BME280;3957;48.61947800;9.05303100;2024-02-23T03:23:52;94218.09;;;2.41;100.00
7824;BME280;3957;48.61947800;9.05303100;2024-02-23T03:24:54;94227.63;;;2.35;100.00
7824;BME280;3957;48.61947800;9.05303100;2024-02-23T03:25:55;94221.38;;;2.43;100.00
7824;BME280;3957;48.61947800;9.05303100;2024-02-23T03:26:57;94215.47;;;2.41;100.00
7824;BME280;3957;48.61947800;9.05303100;2024-02-23T03:27:59;94210.19;;;2.41;100.00
7824;BME280;3957;48.61947800;9.05303100;2024-02-23T03:29:00;94211.41;;;2.38;100.00
7824;BME280;3957;48.61947800;9.05303100;2024-02-23T03:30:03;94208.34;;;2.42;100.00
7824;BME280;3957;48.61947800;9.05303100;2024-02-23T03:31:05;94210.59;;;2.38;100.00
7824;BME280;3957;48.61947800;9.05303100;2024-02-23T03:32:07;94208.56;;;2.40;100.00
7824;BME280;3957;48.61947800;9.05303100;2024-02-23T03:33:09;94217.09;;;2.42;100.00
7824;BME280;3957;48.61947800;9.05303100;2024-02-23T03:34:10;94217.31;;;2.41;100.00
7824;BME280;3957;48.61947800;9.05303100;2024-02-23T03:35:12;94219.50;;;2.30;100.00
7824;BME280;3957;48.61947800;9.05303100;2024-02-23T03:36:14;94221.75;;;2.27;100.00
7824;BME280;3957;48.61947800;9.05303100;2024-02-23T03:37:15;94214.00;;;2.32;100.00
7824;BME280;3957;48.61947800;9.05303100;2024-02-23T03:38:17;94225.81;;;2.29;100.00
7824;BME280;3957;48.61947800;9.05303100;2024-02-23T03:39:18;94223.16;;;2.36;100.00
7824;BME280;3957;48.61947800;9.05303100;2024-02-23T03:40:20;94226.03;;;2.41;100.00
7824;BME280;3957;48.61947800;9.05303100;2024-02-23T03:41:21;94233.31;;;2.32;100.00
7824;BME280;3957;48.61947800;9.05303100;2024-02-23T03:42:23;94227.22;;;2.32;100.00
7824;BME280;3957;48.61947800;9.05303100;2024-02-23T03:43:25;94227.41;;;2.30;100.00
7824;BME280;3957;48.61947800;9.05303100;2024-02-23T03:44:26;94228.44;;;2.23;100.00
7824;BME280;3957;48.61947800;9.05303100;2024-02-23T03:45:28;94235.13;;;2.32;100.00
7824;BME280;3957;48.61947800;9.05303100;2024-02-23T03:46:30;94231.09;;;2.29;100.00
7824;BME280;3957;48.61947800;9.05303100;2024-02-23T03:47:31;94243.03;;;2.32;100.00
7824;BME280;3957;48.61947800;9.05303100;2024-02-23T03:48:33;94243.66;;;2.27;100.00
7824;BME280;3957;48.61947800;9.05303100;2024-02-23T03:49:35;94242.63;;;2.21;100.00
7824;BME280;3957;48.61947800;9.05303100;2024-02-23T03:50:37;94244.63;;;2.19;100.00
7824;BME280;3957;48.61947800;9.05303100;2024-02-23T03:51:39;94244.78;;;2.11;100.00
7824;BME280;3957;48.61947800;9.05303100;2024-02-23T03:52:40;94248.88;;;2.14;100.00
7824;BME280;3957;48.61947800;9.05303100;2024-02-23T03:53:42;94247.44;;;2.11;100.00
7824;BME280;3957;48.61947800;9.05303100;2024-02-23T03:54:44;94244.63;;;2.19;100.00
7824;BME280;3957;48.61947800;9.05303100;2024-02-23T03:55:45;94234.25;;;2.11;100.00
7824;BME280;3957;48.61947800;9.05303100;2024-02-23T03:56:47;94241.16;;;2.12;100.00
7824;BME280;3957;48.61947800;9.05303100;2024-02-23T03:57:48;94233.44;;;2.11;100.00
7824;BME280;3957;48.61947800;9.05303100;2024-02-23T03:58:50;94221.69;;;2.13;100.00
7824;BME280;3957;48.61947800;9.05303100;2024-02-23T03:59:52;94228.41;;;2.16;100.00
7824;BME280;3957;48.61947800;9.05303100;2024-02-23T04:00:54;94232.66;;;2.17;100.00
7824;BME280;3957;48.61947800;9.05303100;2024-02-23T04:01:56;94220.88;;;2.19;100.00
7824;BME280;3957;48.61947800;9.05303100;2024-02-23T04:02:58;94230.03;;;2.17;100.00
7824;BME280;3957;48.61947800;9.05303100;2024-02-23T04:03:59;94228.81;;;2.13;100.00
7824;BME280;3957;48.61947800;9.05303100;2024-02-23T04:05:01;94238.13;;;2.15;100.00
7824;BME280;3957;48.61947800;9.05303100;2024-02-23T04:06:03;94233.88;;;2.14;100.00
7824;BME280;3957;48.61947800;9.05303100;2024-02-23T04:07:04;94230.81;;;2.11;100.00
7824;BME280;3957;48.61947800;9.05303100;2024-02-23T04:08:06;94233.84;;;2.08;100.00
7824;BME280;3957;48.61947800;9.05303100;2024-02-23T04:09:08;94229.38;;;2.08;100.00
7824;BME280;3957;48.61947800;9.05303100;2024-02-23T04:10:10;94234.25;;;2.11;100.00
7824;BME280;3957;48.61947800;9.05303100;2024-02-23T04:11:14;94225.31;;;2.12;100.00
7824;BME280;3957;48.61947800;9.05303100;2024-02-23T04:12:16;94234.88;;;2.13;100.00
7824;BME280;3957;48.61947800;9.05303100;2024-02-23T04:13:17;94233.69;;;2.16;100.00
7824;BME280;3957;48.61947800;9.05303100;2024-02-23T04:14:19;94238.94;;;2.16;100.00
7824;BME280;3957;48.61947800;9.05303100;2024-02-23T04:15:21;94236.72;;;2.19;100.00
7824;BME280;3957;48.61947800;9.05303100;2024-02-23T04:16:23;94240.97;;;2.14;100.00
7824;BME280;3957;48.61947800;9.05303100;2024-02-23T04:17:26;94248.50;;;2.17;100.00
7824;BME280;3957;48.61947800;9.05303100;2024-02-23T04:18:27;94245.00;;;2.10;100.00
7824;BME280;3957;48.61947800;9.05303100;2024-02-23T04:19:29;94235.47;;;2.09;100.00
7824;BME280;3957;48.61947800;9.05303100;2024-02-23T04:20:30;94242.78;;;2.13;100.00
7824;BME280;3957;48.61947800;9.05303100;2024-02-23T04:21:33;94233.00;;;2.07;100.00
7824;BME280;3957;48.61947800;9.05303100;2024-02-23T04:22:36;94239.28;;;1.99;100.00
7824;BME280;3957;48.61947800;9.05303100;2024-02-23T04:23:37;94239.06;;;1.94;100.00
7824;BME280;3957;48.61947800;9.05303100;2024-02-23T04:24:40;94232.50;;;1.83;100.00
7824;BME280;3957;48.61947800;9.05303100;2024-02-23T04:25:41;94235.94;;;1.77;100.00
7824;BME280;3957;48.61947800;9.05303100;2024-02-23T04:26:43;94240.72;;;1.67;100.00
7824;BME280;3957;48.61947800;9.05303100;2024-02-23T04:27:45;94230.59;;;1.64;100.00
7824;BME280;3957;48.61947800;9.05303100;2024-02-23T04:28:46;94224.06;;;1.60;100.00
7824;BME280;3957;48.61947800;9.05303100;2024-02-23T04:29:48;94221.63;;;1.58;100.00
7824;BME280;3957;48.61947800;9.05303100;2024-02-23T04:30:49;94205.22;;;1.56;100.00
7824;BME280;3957;48.61947800;9.05303100;2024-02-23T04:31:51;94216.56;;;1.57;100.00
7824;BME280;3957;48.61947800;9.05303100;2024-02-23T04:32:52;94218.94;;;1.51;100.00
7824;BME280;3957;48.61947800;9.05303100;2024-02-23T04:33:54;94221.34;;;1.46;100.00
7824;BME280;3957;48.61947800;9.05303100;2024-02-23T04:34:56;94219.81;;;1.59;100.00
7824;BME280;3957;48.61947800;9.05303100;2024-02-23T04:35:57;94225.84;;;1.52;100.00
7824;BME280;3957;48.61947800;9.05303100;2024-02-23T04:36:59;94228.25;;;1.47;100.00
7824;BME280;3957;48.61947800;9.05303100;2024-02-23T04:38:01;94228.00;;;1.42;100.00
7824;BME280;3957;48.61947800;9.05303100;2024-02-23T04:39:02;94229.03;;;1.41;100.00
7824;BME280;3957;48.61947800;9.05303100;2024-02-23T04:40:04;94227.81;;;1.37;100.00
7824;BME280;3957;48.61947800;9.05303100;2024-02-23T04:41:07;94220.25;;;1.34;100.00
7824;BME280;3957;48.61947800;9.05303100;2024-02-23T04:42:08;94210.94;;;1.31;100.00
7824;BME280;3957;48.61947800;9.05303100;2024-02-23T04:43:10;94212.75;;;1.31;100.00
7824;BME280;3957;48.61947800;9.05303100;2024-02-23T04:44:11;94216.00;;;1.33;100.00
7824;BME280;3957;48.61947800;9.05303100;2024-02-23T04:45:13;94218.09;;;1.44;100.00
7824;BME280;3957;48.61947800;9.05303100;2024-02-23T04:46:15;94223.28;;;1.59;100.00
7824;BME280;3957;48.61947800;9.05303100;2024-02-23T04:47:16;94216.59;;;1.63;100.00
7824;BME280;3957;48.61947800;9.05303100;2024-02-23T04:48:18;94215.75;;;1.63;100.00
7824;BME280;3957;48.61947800;9.05303100;2024-02-23T04:49:20;94222.47;;;1.65;100.00
7824;BME280;3957;48.61947800;9.05303100;2024-02-23T04:50:21;94209.28;;;1.65;100.00
7824;BME280;3957;48.61947800;9.05303100;2024-02-23T04:51:24;94215.41;;;1.66;100.00
7824;BME280;3957;48.61947800;9.05303100;2024-02-23T04:52:26;94211.94;;;1.65;100.00
7824;BME280;3957;48.61947800;9.05303100;2024-02-23T04:53:27;94210.34;;;1.71;100.00
7824;BME280;3957;48.61947800;9.05303100;2024-02-23T04:54:30;94206.50;;;1.74;100.00
7824;BME280;3957;48.61947800;9.05303100;2024-02-23T04:55:31;94205.06;;;1.71;100.00
7824;BME280;3957;48.61947800;9.05303100;2024-02-23T04:56:33;94204.06;;;1.72;100.00